»·PEaware :: AUZ081 YSSY-KLAX

AUZ081 :: YSSY-KLAX

FLIGHT INFORMATION

Flight Status: Arrived
Operator:
Australian Airlines
More flights by this operator :: More flights under this callsign
Pilot: Kim E. (65)
Aircraft: BOEING 747-400 (WINGLETS)
(B744)
More flights by this aircraft type
Origin: YSSY Kingsford Smith Intl
Australia
Destination: KLAX Los Angeles Intl
United States
More flights between these airports :: More routes between these airports
Route: +KAMPI1 NOBAR A579 NN B581 FICKY C1177 LEENA4 FICKY
File this flight plan on PilotEdge
Remarks: / V /
Altitude:
(Current/Filed)
34,000ft
Speed:
(Current/Filed)
400kts
Departed: 21-Feb-13 03:11 AM
Arrived: 21-Feb-13 05:23 PM
Distance/Time
Traveled:
6509nm/14:11
Distance/Time
To Go:
Arrived

Flight Plot

Page will automatically refresh every two minutes.

Flight plan parsing failed; only flown route is shown


Map Options




Map Legend


Flown Route
Filed Route
Departure Airport
Arrival Airport
Navaid (VOR, NDB)
Fix

Horizontal Profiles

Position Reports

Time Latitude Longitude Heading Altitude Ground
Speed
21-Feb-13 02:30 -33.938812 151.164871 98 33ft 0kts
21-Feb-13 02:31 -33.938812 151.164871 98 33ft 0kts
21-Feb-13 02:32 -33.938812 151.164871 98 33ft 0kts
21-Feb-13 02:33 -33.938812 151.164871 98 33ft 0kts
21-Feb-13 02:34 -33.938812 151.164871 98 33ft 0kts
21-Feb-13 02:35 -33.938812 151.164871 98 33ft 0kts
21-Feb-13 02:36 -33.938812 151.164871 98 33ft 0kts
21-Feb-13 02:37 -33.938812 151.164871 98 33ft 0kts
21-Feb-13 02:38 -33.938812 151.164871 98 33ft 0kts
21-Feb-13 02:39 -33.938812 151.164871 98 33ft 0kts
21-Feb-13 02:40 -33.938812 151.164871 98 33ft 0kts
21-Feb-13 02:41 -33.938812 151.164871 98 33ft 0kts
21-Feb-13 02:42 -33.938812 151.164871 98 33ft 0kts
21-Feb-13 02:43 -33.938812 151.164871 98 33ft 0kts
21-Feb-13 02:44 -33.938812 151.164871 98 33ft 0kts
21-Feb-13 02:45 -33.938812 151.164871 98 33ft 0kts
21-Feb-13 02:46 -33.938812 151.164871 98 33ft 0kts
21-Feb-13 02:47 -33.938812 151.164871 98 33ft 0kts
21-Feb-13 02:48 -33.938797 151.164753 98 32ft 2kts
21-Feb-13 02:49 -33.938553 151.163868 131 32ft 2kts
21-Feb-13 02:50 -33.937914 151.163561 188 32ft 0kts
21-Feb-13 02:51 -33.937914 151.163561 188 32ft 0kts
21-Feb-13 02:52 -33.937914 151.163561 188 32ft 0kts
21-Feb-13 02:53 -33.937914 151.163561 188 32ft 0kts
21-Feb-13 02:54 -33.937914 151.163561 188 32ft 0kts
21-Feb-13 02:55 -33.937914 151.163561 188 32ft 0kts
21-Feb-13 02:56 -33.938271 151.163398 212 32ft 4kts
21-Feb-13 02:57 -33.940263 151.162787 183 32ft 9kts
21-Feb-13 02:58 -33.941196 151.162959 167 32ft 4kts
21-Feb-13 02:59 -33.941691 151.163612 78 32ft 4kts
21-Feb-13 03:00 -33.941165 151.165995 73 32ft 7kts
21-Feb-13 03:01 -33.940858 151.167305 74 32ft 5kts
21-Feb-13 03:02 -33.940434 151.169145 74 32ft 8kts
21-Feb-13 03:03 -33.939801 151.171813 73 32ft 4kts
21-Feb-13 03:04 -33.937709 151.171728 347 32ft 8kts
21-Feb-13 03:05 -33.934313 151.170770 346 32ft 12kts
21-Feb-13 03:06 -33.931430 151.169039 347 32ft 11kts
21-Feb-13 03:07 -33.929958 151.169199 63 32ft 1kts
21-Feb-13 03:08 -33.929652 151.170392 78 32ft 4kts
21-Feb-13 03:09 -33.929642 151.170464 81 32ft 0kts
21-Feb-13 03:10 -33.929633 151.170549 83 32ft 3kts
21-Feb-13 03:11 -33.931258 151.172078 169 32ft 23kts
21-Feb-13 03:12 -33.966810 151.181241 166 437ft 186kts
21-Feb-13 03:13 -34.023858 151.176785 173 1893ft 235kts
21-Feb-13 03:14 -34.093339 151.197168 162 3876ft 266kts
21-Feb-13 03:15 -34.166818 151.221746 164 4970ft 276kts
21-Feb-13 03:16 -34.237696 151.252153 137 4980ft 277kts
21-Feb-13 03:17 -34.230202 151.340519 48 6442ft 309kts
21-Feb-13 03:18 -34.164379 151.405318 40 9348ft 314kts
21-Feb-13 03:19 -34.090109 151.471857 40 10721ft 361kts
21-Feb-13 03:20 -34.003667 151.548724 39 12673ft 400kts
21-Feb-13 03:21 -33.911830 151.629807 38 15099ft 418kts
21-Feb-13 03:22 -33.815494 151.714796 39 17255ft 434kts
21-Feb-13 03:23 -33.744708 151.830882 63 18988ft 444kts
21-Feb-13 03:24 -33.684150 151.964116 62 20554ft 461kts
21-Feb-13 03:25 -33.621349 152.101146 61 22032ft 475kts
21-Feb-13 03:26 -33.556679 152.241347 60 23540ft 484kts
21-Feb-13 03:27 -33.490738 152.383890 60 24904ft 492kts
21-Feb-13 03:28 -33.424826 152.527561 59 26090ft 499kts
21-Feb-13 03:29 -33.356595 152.673326 59 27176ft 506kts
21-Feb-13 03:30 -33.287928 152.821032 59 28161ft 511kts
21-Feb-13 03:31 -33.218087 152.969682 58 29432ft 508kts
21-Feb-13 03:32 -33.148549 153.117292 60 30144ft 516kts
21-Feb-13 03:33 -33.077477 153.268087 59 30770ft 523kts
21-Feb-13 03:34 -33.006507 153.417187 58 32012ft 513kts
21-Feb-13 03:35 -32.938030 153.561093 57 33938ft 481kts
21-Feb-13 03:36 -32.872604 153.697227 58 34025ft 473kts
21-Feb-13 03:37 -32.807733 153.832818 58 34012ft 472kts
21-Feb-13 03:38 -32.742781 153.967486 58 34009ft 471kts
21-Feb-13 03:39 -32.676891 154.102187 60 34128ft 467kts
21-Feb-13 03:40 -32.624277 154.212486 59 34016ft 473kts
21-Feb-13 03:41 -32.558016 154.348336 59 34034ft 477kts
21-Feb-13 03:42 -32.491281 154.484868 60 34028ft 482kts
21-Feb-13 03:43 -32.423104 154.624139 59 32904ft 486kts
21-Feb-13 03:44 -32.354922 154.762863 59 31688ft 488kts
21-Feb-13 03:45 -32.286161 154.901439 59 30470ft 489kts
21-Feb-13 03:46 -32.217201 155.039887 59 30009ft 491kts
21-Feb-13 03:47 -32.148851 155.177801 59 30004ft 490kts
21-Feb-13 03:48 -32.079378 155.316332 59 30005ft 490kts
21-Feb-13 03:49 -32.010184 155.454703 59 30004ft 490kts
21-Feb-13 03:50 -31.940254 155.592858 59 30004ft 490kts
21-Feb-13 03:51 -31.870582 155.730293 59 30004ft 490kts
21-Feb-13 03:52 -31.800973 155.867985 59 30003ft 490kts
21-Feb-13 03:53 -31.742124 155.983256 58 30003ft 490kts
21-Feb-13 03:54 -31.660537 156.143423 58 30003ft 490kts
21-Feb-13 03:55 -31.590423 156.279868 58 30004ft 490kts
21-Feb-13 03:56 -31.520027 156.416677 59 30004ft 490kts
21-Feb-13 03:57 -31.450176 156.552451 58 30004ft 490kts
21-Feb-13 03:58 -31.378877 156.689515 58 30004ft 490kts
21-Feb-13 03:59 -31.320288 156.802690 58 30004ft 490kts
21-Feb-13 04:00 -31.249526 156.938118 58 30004ft 490kts
21-Feb-13 04:01 -31.165935 157.097930 58 30003ft 490kts
21-Feb-13 04:02 -31.094732 157.233377 58 30003ft 490kts
21-Feb-13 04:03 -31.035307 157.346106 58 30003ft 490kts
21-Feb-13 04:04 -30.951911 157.503650 58 30004ft 490kts
21-Feb-13 04:05 -30.879848 157.638203 58 30004ft 490kts
21-Feb-13 04:06 -30.807797 157.773273 58 30004ft 490kts
21-Feb-13 04:07 -30.736420 157.906852 58 30003ft 490kts
21-Feb-13 04:08 -30.663918 158.041431 57 30003ft 490kts
21-Feb-13 04:09 -30.591929 158.175622 57 30004ft 490kts
21-Feb-13 04:10 -30.519447 158.309367 57 30004ft 490kts
21-Feb-13 04:11 -30.447370 158.443149 58 30003ft 490kts
21-Feb-13 04:12 -30.374433 158.576926 57 30003ft 490kts
21-Feb-13 04:13 -30.301405 158.710074 57 30004ft 490kts
21-Feb-13 04:14 -30.229312 158.842235 57 30004ft 490kts
21-Feb-13 04:15 -30.156414 158.974480 57 30003ft 490kts
21-Feb-13 04:16 -30.083177 159.107551 57 30003ft 490kts
21-Feb-13 04:17 -30.009639 159.240361 57 30004ft 490kts
21-Feb-13 04:18 -29.936044 159.372496 57 30004ft 489kts
21-Feb-13 04:19 -29.862779 159.504605 56 30003ft 489kts
21-Feb-13 04:20 -29.789002 159.635770 56 30003ft 489kts
21-Feb-13 04:21 -29.715110 159.767896 56 30004ft 489kts
21-Feb-13 04:22 -29.641415 159.898754 56 30004ft 489kts
21-Feb-13 04:23 -29.567044 160.030274 57 30003ft 489kts
21-Feb-13 04:24 -29.493040 160.161489 56 30004ft 489kts
21-Feb-13 04:25 -29.418667 160.292784 56 30003ft 489kts
21-Feb-13 04:26 -29.344747 160.423010 56 30003ft 489kts
21-Feb-13 04:27 -29.269758 160.553716 56 30004ft 489kts
21-Feb-13 04:28 -29.195033 160.683805 56 30003ft 489kts
21-Feb-13 04:29 -29.121071 160.812624 56 30003ft 489kts
21-Feb-13 04:30 -29.045992 160.942388 56 30004ft 489kts
21-Feb-13 04:31 -28.970458 161.073358 56 30003ft 489kts
21-Feb-13 04:32 -28.895469 161.202268 56 30003ft 489kts
21-Feb-13 04:33 -28.820706 161.330738 56 30004ft 489kts
21-Feb-13 04:34 -28.744887 161.460626 56 30003ft 489kts
21-Feb-13 04:35 -28.668884 161.589642 55 30004ft 489kts
21-Feb-13 04:36 -28.593454 161.718379 55 30004ft 489kts
21-Feb-13 04:37 -28.517593 161.846796 55 30003ft 489kts
21-Feb-13 04:38 -28.442370 161.974819 55 30004ft 489kts
21-Feb-13 04:39 -28.366342 162.103048 55 30003ft 489kts
21-Feb-13 04:40 -28.289881 162.231271 55 30004ft 489kts
21-Feb-13 04:41 -28.213627 162.359502 55 30003ft 489kts
21-Feb-13 04:42 -28.137722 162.486090 55 30003ft 489kts
21-Feb-13 04:43 -28.060772 162.614296 55 30003ft 489kts
21-Feb-13 04:44 -27.984480 162.740959 55 30003ft 489kts
21-Feb-13 04:45 -27.908381 162.866968 55 30004ft 489kts
21-Feb-13 04:46 -27.831227 162.994727 55 30003ft 489kts
21-Feb-13 04:47 -27.753878 163.121654 55 30004ft 489kts
21-Feb-13 04:48 -27.677212 163.247058 55 30004ft 489kts
21-Feb-13 04:49 -27.599457 163.374472 55 30004ft 489kts
21-Feb-13 04:50 -27.521942 163.500888 55 30003ft 489kts
21-Feb-13 04:51 -27.444226 163.627190 55 30004ft 489kts
21-Feb-13 04:52 -27.367661 163.751972 55 30003ft 489kts
21-Feb-13 04:53 -27.289341 163.878352 54 30004ft 489kts
21-Feb-13 04:54 -27.212324 164.002853 55 30003ft 489kts
21-Feb-13 04:55 -27.134271 164.128264 54 30003ft 489kts
21-Feb-13 04:56 -27.056246 164.253112 54 30005ft 489kts
21-Feb-13 04:57 -26.978413 164.377999 54 30004ft 489kts
21-Feb-13 04:58 -26.899854 164.502976 54 30003ft 488kts
21-Feb-13 04:59 -26.821933 164.626900 54 30005ft 488kts
21-Feb-13 05:00 -26.743820 164.750602 54 30003ft 489kts
21-Feb-13 05:01 -26.665132 164.874929 54 30003ft 489kts
21-Feb-13 05:02 -26.586349 164.999454 54 30005ft 488kts
21-Feb-13 05:03 -26.507840 165.122644 54 30003ft 488kts
21-Feb-13 05:04 -26.429831 165.245989 54 30004ft 488kts
21-Feb-13 05:05 -26.350606 165.369786 54 30004ft 488kts
21-Feb-13 05:06 -26.271767 165.492809 54 30003ft 488kts
21-Feb-13 05:07 -26.192622 165.615791 54 30005ft 488kts
21-Feb-13 05:08 -26.113304 165.738555 54 30003ft 488kts
21-Feb-13 05:09 -26.034532 165.860845 54 30004ft 488kts
21-Feb-13 05:10 -25.955304 165.982929 54 30004ft 488kts
21-Feb-13 05:11 -25.875171 166.106408 54 30004ft 488kts
21-Feb-13 05:12 -25.797487 166.225725 53 29996ft 471kts
21-Feb-13 05:13 -25.721053 166.342526 53 29996ft 471kts
21-Feb-13 05:14 -25.644089 166.460474 53 29996ft 471kts
21-Feb-13 05:15 -25.566875 166.577734 53 29997ft 471kts
21-Feb-13 05:16 -25.489719 166.695157 54 29997ft 471kts
21-Feb-13 05:17 -25.412476 166.812798 53 29995ft 471kts
21-Feb-13 05:18 -25.334949 166.929851 53 29997ft 472kts
21-Feb-13 05:19 -25.257834 167.046521 53 29997ft 472kts
21-Feb-13 05:20 -25.179894 167.163677 53 29996ft 472kts
21-Feb-13 05:21 -25.102606 167.279726 53 29996ft 472kts
21-Feb-13 05:22 -25.025010 167.396086 53 29997ft 473kts
21-Feb-13 05:23 -24.946576 167.513104 53 29996ft 473kts
21-Feb-13 05:24 -24.868004 167.630168 53 29996ft 474kts
21-Feb-13 05:25 -24.789692 167.746935 53 29996ft 474kts
21-Feb-13 05:26 -24.710895 167.863384 53 29997ft 475kts
21-Feb-13 05:27 -24.632244 167.979401 53 29996ft 475kts
21-Feb-13 05:28 -24.553282 168.096071 53 29997ft 476kts
21-Feb-13 05:29 -24.474209 168.212727 53 29997ft 477kts
21-Feb-13 05:30 -24.394761 168.329416 53 29996ft 477kts
21-Feb-13 05:31 -24.315373 168.446103 53 29997ft 478kts
21-Feb-13 05:32 -24.234816 168.563415 52 29997ft 479kts
21-Feb-13 05:33 -24.154846 168.680113 53 29996ft 480kts
21-Feb-13 05:34 -24.075019 168.796200 52 29997ft 481kts
21-Feb-13 05:35 -23.993872 168.913684 52 29997ft 481kts
21-Feb-13 05:36 -23.913507 169.030381 52 29997ft 482kts
21-Feb-13 05:37 -23.832610 169.147008 52 29996ft 483kts
21-Feb-13 05:38 -23.751059 169.264680 52 29996ft 484kts
21-Feb-13 05:39 -23.669855 169.381375 52 29996ft 485kts
21-Feb-13 05:40 -23.588292 169.498099 52 29996ft 486kts
21-Feb-13 05:41 -23.505640 169.616503 52 30010ft 486kts
21-Feb-13 05:42 -23.424244 169.732991 52 30023ft 487kts
21-Feb-13 05:43 -23.341784 169.850688 52 30068ft 489kts
21-Feb-13 05:44 -23.259630 169.967355 52 31416ft 485kts
21-Feb-13 05:45 -23.177140 170.084097 52 31993ft 487kts
21-Feb-13 05:46 -23.095104 170.200444 52 31997ft 487kts
21-Feb-13 05:47 -23.012536 170.316764 52 31996ft 487kts
21-Feb-13 05:48 -22.929951 170.433278 52 31997ft 487kts
21-Feb-13 05:49 -22.846982 170.549632 52 31997ft 487kts
21-Feb-13 05:50 -22.763870 170.665967 52 31997ft 487kts
21-Feb-13 05:51 -22.681699 170.781133 52 31997ft 487kts
21-Feb-13 05:52 -22.598103 170.897631 52 31996ft 487kts
21-Feb-13 05:53 -22.514656 171.014085 52 31996ft 487kts
21-Feb-13 05:54 -22.431616 171.129746 52 31997ft 487kts
21-Feb-13 05:55 -22.348499 171.245048 52 31997ft 487kts
21-Feb-13 05:56 -22.265922 171.359369 51 31996ft 486kts
21-Feb-13 05:57 -22.182222 171.474855 51 31996ft 486kts
21-Feb-13 05:58 -22.098871 171.589807 51 31997ft 486kts
21-Feb-13 05:59 -22.015484 171.704146 51 31997ft 486kts
21-Feb-13 06:00 -21.931709 171.818743 51 31997ft 486kts
21-Feb-13 06:01 -21.848113 171.933258 51 31996ft 486kts
21-Feb-13 06:02 -21.764697 172.047084 51 31996ft 486kts
21-Feb-13 06:03 -21.680796 172.161154 51 31996ft 486kts
21-Feb-13 06:04 -21.610249 172.257389 51 31997ft 486kts
21-Feb-13 06:05 -21.512449 172.389877 51 31997ft 486kts
21-Feb-13 06:06 -21.442686 172.484902 51 31997ft 486kts
21-Feb-13 06:07 -21.344580 172.617393 51 31997ft 486kts
21-Feb-13 06:08 -21.274324 172.711932 51 31996ft 486kts
21-Feb-13 06:09 -21.189951 172.825773 51 31997ft 486kts
21-Feb-13 06:10 -21.106458 172.937740 51 31997ft 486kts
21-Feb-13 06:11 -21.021542 173.051697 51 31996ft 486kts
21-Feb-13 06:12 -20.936819 173.164996 50 31996ft 486kts
21-Feb-13 06:13 -20.852801 173.276953 50 31997ft 486kts
21-Feb-13 06:14 -20.753584 173.409390 50 31996ft 486kts
21-Feb-13 06:15 -20.683022 173.503043 50 31997ft 486kts
21-Feb-13 06:16 -20.598550 173.615191 50 31997ft 486kts
21-Feb-13 06:17 -20.514012 173.727089 50 31997ft 486kts
21-Feb-13 06:18 -20.429311 173.839298 50 31997ft 486kts
21-Feb-13 06:19 -20.344479 173.951542 50 31997ft 486kts
21-Feb-13 06:20 -20.258851 174.064120 50 31996ft 486kts
21-Feb-13 06:21 -20.174449 174.175231 50 31997ft 486kts
21-Feb-13 06:22 -20.089017 174.287201 50 31996ft 486kts
21-Feb-13 06:23 -20.004022 174.398354 50 31997ft 486kts
21-Feb-13 06:24 -19.918742 174.509974 50 31997ft 486kts
21-Feb-13 06:25 -19.833324 174.621130 50 31997ft 486kts
21-Feb-13 06:26 -19.748141 174.732215 50 31997ft 486kts
21-Feb-13 06:27 -19.662842 174.842952 50 31996ft 486kts
21-Feb-13 06:28 -19.577037 174.954198 50 31996ft 486kts
21-Feb-13 06:29 -19.491189 175.065477 50 31996ft 486kts
21-Feb-13 06:30 -19.405688 175.176178 50 31996ft 486kts
21-Feb-13 06:31 -19.320285 175.286549 50 31996ft 486kts
21-Feb-13 06:32 -19.234194 175.397284 50 31997ft 486kts
21-Feb-13 06:33 -19.148420 175.507544 50 31997ft 486kts
21-Feb-13 06:34 -19.062493 175.617763 50 31997ft 486kts
21-Feb-13 06:35 -18.976191 175.728167 50 31997ft 486kts
21-Feb-13 06:36 -18.890249 175.838218 50 31997ft 486kts
21-Feb-13 06:37 -18.804481 175.947655 50 31997ft 486kts
21-Feb-13 06:38 -18.718439 176.057361 50 31996ft 486kts
21-Feb-13 06:39 -18.631731 176.167258 49 31996ft 486kts
21-Feb-13 06:40 -18.545338 176.276603 49 31996ft 486kts
21-Feb-13 06:41 -18.459407 176.385735 50 31997ft 486kts
21-Feb-13 06:42 -18.358282 176.513514 49 31996ft 486kts
21-Feb-13 06:43 -18.285821 176.604739 49 31997ft 486kts
21-Feb-13 06:44 -18.199111 176.714102 49 31996ft 486kts
21-Feb-13 06:45 -18.112150 176.823274 49 31996ft 485kts
21-Feb-13 06:46 -18.025811 176.931759 49 31997ft 485kts
21-Feb-13 06:47 -17.939026 177.040410 49 31997ft 485kts
21-Feb-13 06:48 -17.851996 177.149170 49 31996ft 485kts
21-Feb-13 06:49 -17.765381 177.257313 49 31996ft 485kts
21-Feb-13 06:50 -17.678599 177.365680 49 31996ft 485kts
21-Feb-13 06:51 -17.591866 177.474789 50 31996ft 485kts
21-Feb-13 06:52 -17.505600 177.583449 49 31996ft 485kts
21-Feb-13 06:53 -17.419748 177.691977 50 31996ft 485kts
21-Feb-13 06:54 -17.333450 177.800665 49 31996ft 485kts
21-Feb-13 06:55 -17.246766 177.909410 49 31996ft 485kts
21-Feb-13 06:56 -17.160363 178.017937 49 31996ft 485kts
21-Feb-13 06:57 -17.074188 178.125745 49 31996ft 485kts
21-Feb-13 06:58 -16.988011 178.233508 49 31996ft 485kts
21-Feb-13 06:59 -16.901073 178.342063 49 31996ft 485kts
21-Feb-13 07:00 -16.814181 178.450267 49 31996ft 485kts
21-Feb-13 07:01 -16.728131 178.557289 49 31997ft 485kts
21-Feb-13 07:02 -16.641020 178.665630 49 31997ft 485kts
21-Feb-13 07:03 -16.553868 178.773532 49 31996ft 485kts
21-Feb-13 07:04 -16.466940 178.880457 49 31996ft 485kts
21-Feb-13 07:05 -16.379797 178.987479 49 31997ft 485kts
21-Feb-13 07:06 -16.292551 179.094663 49 31997ft 485kts
21-Feb-13 07:07 -16.204832 179.201950 49 31996ft 485kts
21-Feb-13 07:08 -16.117119 179.309245 49 31997ft 485kts
21-Feb-13 07:09 -16.030264 179.415274 49 31997ft 485kts
21-Feb-13 07:10 -15.942494 179.522092 49 31997ft 485kts
21-Feb-13 07:11 -15.855276 179.628428 49 31996ft 485kts
21-Feb-13 07:12 -15.767334 179.735191 49 31997ft 485kts
21-Feb-13 07:13 -15.679802 179.841497 49 31997ft 485kts
21-Feb-13 07:14 -15.592303 179.947518 49 31997ft 485kts
21-Feb-13 07:15 -15.504627 -179.946527 49 31996ft 485kts
21-Feb-13 07:16 -15.417117 -179.840245 49 31997ft 485kts
21-Feb-13 07:17 -15.328670 -179.733594 49 31997ft 485kts
21-Feb-13 07:18 -15.241132 -179.628016 49 31996ft 485kts
21-Feb-13 07:19 -15.153749 -179.522902 49 31997ft 485kts
21-Feb-13 07:20 -15.065410 -179.416906 49 31997ft 485kts
21-Feb-13 07:21 -14.977555 -179.311306 49 31996ft 485kts
21-Feb-13 07:22 -14.890026 -179.206533 48 31996ft 485kts
21-Feb-13 07:23 -14.801383 -179.100348 49 31997ft 485kts
21-Feb-13 07:24 -14.712862 -178.994605 48 31996ft 485kts
21-Feb-13 07:25 -14.625226 -178.890132 48 31997ft 485kts
21-Feb-13 07:26 -14.536866 -178.784656 48 31997ft 485kts
21-Feb-13 07:27 -14.448343 -178.679133 48 31996ft 485kts
21-Feb-13 07:28 -14.360036 -178.573961 48 31997ft 485kts
21-Feb-13 07:29 -14.271937 -178.469435 48 31997ft 485kts
21-Feb-13 07:30 -14.183508 -178.364679 48 31996ft 485kts
21-Feb-13 07:31 -14.095066 -178.259830 48 31997ft 485kts
21-Feb-13 07:32 -14.006244 -178.154900 48 31997ft 485kts
21-Feb-13 07:33 -13.917693 -178.050196 48 31996ft 485kts
21-Feb-13 07:34 -13.829108 -177.945767 48 31997ft 485kts
21-Feb-13 07:35 -13.740500 -177.841410 48 31997ft 485kts
21-Feb-13 07:36 -13.652125 -177.737348 48 31997ft 485kts
21-Feb-13 07:37 -13.563142 -177.632868 48 31997ft 484kts
21-Feb-13 07:38 -13.474493 -177.528541 48 31996ft 484kts
21-Feb-13 07:39 -13.386333 -177.425135 48 31996ft 484kts
21-Feb-13 07:40 -13.296955 -177.320464 48 31997ft 484kts
21-Feb-13 07:41 -13.207926 -177.216314 48 33032ft 484kts
21-Feb-13 07:42 -13.119092 -177.112573 48 33979ft 486kts
21-Feb-13 07:43 -13.030605 -177.009243 48 33998ft 484kts
21-Feb-13 07:44 -12.942016 -176.906124 48 33997ft 483kts
21-Feb-13 07:45 -12.852790 -176.802422 48 33997ft 483kts
21-Feb-13 07:46 -12.764181 -176.699399 48 33997ft 483kts
21-Feb-13 07:47 -12.674694 -176.595500 48 33997ft 483kts
21-Feb-13 07:48 -12.586347 -176.493159 48 33997ft 483kts
21-Feb-13 07:49 -12.496848 -176.389348 48 33997ft 483kts
21-Feb-13 07:50 -12.407866 -176.286172 48 33997ft 483kts
21-Feb-13 07:51 -12.318790 -176.183148 48 33996ft 483kts
21-Feb-13 07:52 -12.229684 -176.080284 48 33996ft 483kts
21-Feb-13 07:53 -12.140820 -175.977918 48 33997ft 483kts
21-Feb-13 07:54 -12.051146 -175.874492 48 33997ft 483kts
21-Feb-13 07:55 -11.962474 -175.772548 48 33997ft 483kts
21-Feb-13 07:56 -11.872916 -175.669555 48 33996ft 483kts
21-Feb-13 07:57 -11.783955 -175.567425 48 33996ft 483kts
21-Feb-13 07:58 -11.693971 -175.464308 48 33996ft 483kts
21-Feb-13 07:59 -11.604929 -175.362152 48 33997ft 483kts
21-Feb-13 08:00 -11.515515 -175.259894 48 33997ft 483kts
21-Feb-13 08:01 -11.426266 -175.157514 48 33997ft 483kts
21-Feb-13 08:02 -11.336928 -175.055455 48 33996ft 483kts
21-Feb-13 08:03 -11.247883 -174.953945 48 33997ft 483kts
21-Feb-13 08:04 -11.158171 -174.851559 48 33997ft 483kts
21-Feb-13 08:05 -11.068334 -174.749338 48 33996ft 483kts
21-Feb-13 08:06 -10.978728 -174.647332 48 33996ft 483kts
21-Feb-13 08:07 -10.889443 -174.545887 47 33996ft 483kts
21-Feb-13 08:08 -10.800118 -174.444531 47 33997ft 483kts
21-Feb-13 08:09 -10.710423 -174.342670 47 33997ft 483kts
21-Feb-13 08:10 -10.620176 -174.240474 47 33997ft 483kts
21-Feb-13 08:11 -10.531021 -174.139465 47 33996ft 483kts
21-Feb-13 08:12 -10.441479 -174.037997 47 33996ft 483kts
21-Feb-13 08:13 -10.351324 -173.936140 47 33997ft 483kts
21-Feb-13 08:14 -10.261555 -173.834690 47 33997ft 483kts
21-Feb-13 08:15 -10.171539 -173.733223 47 33996ft 483kts
21-Feb-13 08:16 -10.081956 -173.632195 47 33996ft 483kts
21-Feb-13 08:17 -9.991983 -173.530923 47 33997ft 483kts
21-Feb-13 08:18 -9.902115 -173.429850 47 33997ft 483kts
21-Feb-13 08:19 -9.812529 -173.329075 47 33997ft 483kts
21-Feb-13 08:20 -9.722855 -173.228410 47 33997ft 483kts
21-Feb-13 08:21 -9.632590 -173.127043 47 33996ft 483kts
21-Feb-13 08:22 -9.542319 -173.025812 47 33996ft 483kts
21-Feb-13 08:23 -9.452377 -172.924891 47 33997ft 483kts
21-Feb-13 08:24 -9.362246 -172.823970 47 33997ft 483kts
21-Feb-13 08:25 -9.272292 -172.723370 47 33997ft 483kts
21-Feb-13 08:26 -9.182180 -172.622526 47 33996ft 483kts
21-Feb-13 08:27 -9.091758 -172.521523 47 33997ft 483kts
21-Feb-13 08:28 -9.002189 -172.421537 47 33997ft 483kts
21-Feb-13 08:29 -8.911795 -172.320610 47 33996ft 483kts
21-Feb-13 08:30 -8.821900 -172.220467 47 33996ft 483kts
21-Feb-13 08:31 -8.731785 -172.120019 47 33997ft 483kts
21-Feb-13 08:32 -8.641015 -172.019028 47 33996ft 483kts
21-Feb-13 08:33 -8.550746 -171.918669 47 33996ft 483kts
21-Feb-13 08:34 -8.460580 -171.818242 47 33997ft 483kts
21-Feb-13 08:35 -8.370382 -171.718043 47 33996ft 482kts
21-Feb-13 08:36 -8.280106 -171.617789 47 33997ft 482kts
21-Feb-13 08:37 -8.190376 -171.518329 47 33997ft 482kts
21-Feb-13 08:38 -8.099388 -171.417507 47 33996ft 482kts
21-Feb-13 08:39 -8.009363 -171.317779 47 33996ft 482kts
21-Feb-13 08:40 -7.918983 -171.217838 47 33997ft 482kts
21-Feb-13 08:41 -7.828294 -171.117496 47 33997ft 482kts
21-Feb-13 08:42 -7.738464 -171.018278 47 33996ft 482kts
21-Feb-13 08:43 -7.647404 -170.917741 47 33996ft 482kts
21-Feb-13 08:44 -7.556696 -170.817620 47 33997ft 482kts
21-Feb-13 08:45 -7.466939 -170.718572 47 33996ft 482kts
21-Feb-13 08:46 -7.376128 -170.618324 47 33997ft 482kts
21-Feb-13 08:47 -7.286293 -170.519423 47 33997ft 482kts
21-Feb-13 08:48 -7.195432 -170.419396 47 33996ft 482kts
21-Feb-13 08:49 -7.104500 -170.319362 47 33997ft 482kts
21-Feb-13 08:50 -7.013652 -170.219563 47 33996ft 482kts
21-Feb-13 08:51 -6.923364 -170.120322 47 33996ft 482kts
21-Feb-13 08:52 -6.832757 -170.020891 47 33997ft 482kts
21-Feb-13 08:53 -6.742249 -169.921584 47 33996ft 482kts
21-Feb-13 08:54 -6.651854 -169.822451 47 33997ft 482kts
21-Feb-13 08:55 -6.560662 -169.722568 47 33996ft 482kts
21-Feb-13 08:56 -6.470326 -169.623443 47 33997ft 482kts
21-Feb-13 08:57 -6.379375 -169.523838 47 33997ft 482kts
21-Feb-13 08:58 -6.289056 -169.424987 47 33996ft 482kts
21-Feb-13 08:59 -6.198715 -169.326197 47 33997ft 482kts
21-Feb-13 09:00 -6.108180 -169.227308 47 33996ft 482kts
21-Feb-13 09:01 -6.017223 -169.127911 47 33997ft 482kts
21-Feb-13 09:02 -5.926153 -169.028529 47 33997ft 482kts
21-Feb-13 09:03 -5.835430 -168.929532 47 33996ft 482kts
21-Feb-13 09:04 -5.744914 -168.830817 47 33997ft 482kts
21-Feb-13 09:05 -5.653809 -168.731553 47 33996ft 482kts
21-Feb-13 09:06 -5.562982 -168.632552 47 33997ft 482kts
21-Feb-13 09:07 -5.472620 -168.534076 47 33997ft 482kts
21-Feb-13 09:08 -5.381830 -168.435158 47 33996ft 482kts
21-Feb-13 09:09 -5.290293 -168.335572 47 33997ft 482kts
21-Feb-13 09:10 -5.200369 -168.237812 47 33996ft 482kts
21-Feb-13 09:11 -5.109190 -168.138711 47 33997ft 482kts
21-Feb-13 09:12 -5.017770 -168.039346 47 33996ft 482kts
21-Feb-13 09:13 -4.927439 -167.941371 47 33997ft 482kts
21-Feb-13 09:14 -4.836124 -167.842396 47 33997ft 482kts
21-Feb-13 09:15 -4.745488 -167.744149 47 33997ft 482kts
21-Feb-13 09:16 -4.654262 -167.645297 47 33996ft 482kts
21-Feb-13 09:17 -4.563277 -167.546793 47 33997ft 482kts
21-Feb-13 09:18 -4.472686 -167.448553 47 33996ft 482kts
21-Feb-13 09:19 -4.381772 -167.350085 47 33997ft 482kts
21-Feb-13 09:20 -4.290790 -167.251650 47 33996ft 482kts
21-Feb-13 09:21 -4.199489 -167.152913 47 33997ft 482kts
21-Feb-13 09:22 -4.108675 -167.054781 47 33997ft 482kts
21-Feb-13 09:23 -4.017084 -166.955773 47 33997ft 481kts
21-Feb-13 09:24 -3.926399 -166.857840 47 33997ft 481kts
21-Feb-13 09:25 -3.835603 -166.759788 47 33997ft 481kts
21-Feb-13 09:26 -3.744306 -166.661229 47 33996ft 481kts
21-Feb-13 09:27 -3.653510 -166.563280 47 33997ft 481kts
21-Feb-13 09:28 -3.562526 -166.465078 47 33996ft 481kts
21-Feb-13 09:29 -3.486675 -166.383262 47 33996ft 481kts
21-Feb-13 09:30 -3.380799 -166.268948 47 33996ft 481kts
21-Feb-13 09:31 -3.288803 -166.169786 47 33997ft 481kts
21-Feb-13 09:32 -3.197414 -166.071341 47 33996ft 481kts
21-Feb-13 09:33 -3.122075 -165.990158 47 33996ft 481kts
21-Feb-13 09:34 -3.015501 -165.875405 47 33996ft 481kts
21-Feb-13 09:35 -2.924471 -165.777394 47 33997ft 481kts
21-Feb-13 09:36 -2.848885 -165.696031 47 33997ft 481kts
21-Feb-13 09:37 -2.742019 -165.581055 46 33997ft 481kts
21-Feb-13 09:38 -2.651770 -165.483923 47 33997ft 481kts
21-Feb-13 09:39 -2.575583 -165.401987 46 33997ft 481kts
21-Feb-13 09:40 -2.468676 -165.286921 47 33997ft 481kts
21-Feb-13 09:41 -2.393405 -165.205933 46 33997ft 481kts
21-Feb-13 09:42 -2.302003 -165.107695 46 33997ft 481kts
21-Feb-13 09:43 -2.195720 -164.993455 46 33997ft 481kts
21-Feb-13 09:44 -2.119532 -164.911604 46 33997ft 481kts
21-Feb-13 09:45 -2.028723 -164.814047 46 33996ft 481kts
21-Feb-13 09:46 -1.937603 -164.716167 46 33997ft 481kts
21-Feb-13 09:47 -1.846448 -164.618282 46 33996ft 481kts
21-Feb-13 09:48 -1.755334 -164.520429 46 33996ft 481kts
21-Feb-13 09:49 -1.664148 -164.422514 46 33997ft 481kts
21-Feb-13 09:50 -1.573225 -164.324899 46 33996ft 481kts
21-Feb-13 09:51 -1.481957 -164.226872 47 33996ft 481kts
21-Feb-13 09:52 -1.390809 -164.129019 46 33997ft 481kts
21-Feb-13 09:53 -1.299715 -164.031255 46 33996ft 481kts
21-Feb-13 09:54 -1.208921 -163.933831 46 33997ft 481kts
21-Feb-13 09:55 -1.117230 -163.835439 46 33997ft 481kts
21-Feb-13 09:56 -1.026683 -163.738278 46 33996ft 481kts
21-Feb-13 09:57 -0.935938 -163.640899 46 33997ft 481kts
21-Feb-13 09:58 -0.844674 -163.542985 46 33997ft 481kts
21-Feb-13 09:59 -0.752757 -163.444349 46 33996ft 481kts
21-Feb-13 10:00 -0.662041 -163.347030 46 33997ft 481kts
21-Feb-13 10:01 -0.571503 -163.249910 46 33997ft 481kts
21-Feb-13 10:02 -0.480391 -163.152112 47 33996ft 481kts
21-Feb-13 10:03 -0.389056 -163.054071 46 33997ft 481kts
21-Feb-13 10:04 -0.297374 -162.955722 46 33997ft 481kts
21-Feb-13 10:05 -0.206646 -162.858411 46 33996ft 481kts
21-Feb-13 10:06 -0.115539 -162.760694 46 33997ft 481kts
21-Feb-13 10:07 -0.024416 -162.662959 46 33998ft 480kts
21-Feb-13 10:08 0.066712 -162.565221 46 33996ft 480kts
21-Feb-13 10:09 0.156331 -162.469093 46 33998ft 480kts
21-Feb-13 10:10 0.247391 -162.371420 46 33999ft 480kts
21-Feb-13 10:11 0.338170 -162.274050 46 34000ft 480kts
21-Feb-13 10:12 0.429465 -162.176125 46 34000ft 480kts
21-Feb-13 10:13 0.520486 -162.078428 46 34000ft 480kts
21-Feb-13 10:14 0.611161 -161.981101 46 34000ft 480kts
21-Feb-13 10:15 0.702566 -161.883035 46 34000ft 480kts
21-Feb-13 10:16 0.793508 -161.785466 46 34000ft 480kts
21-Feb-13 10:17 0.884574 -161.687763 46 34000ft 480kts
21-Feb-13 10:18 0.975735 -161.589941 46 34000ft 480kts
21-Feb-13 10:19 1.066012 -161.493071 46 34000ft 480kts
21-Feb-13 10:20 1.156947 -161.395466 46 34000ft 480kts
21-Feb-13 10:21 1.247326 -161.298459 46 34000ft 480kts
21-Feb-13 10:22 1.338689 -161.200392 46 34000ft 480kts
21-Feb-13 10:23 1.429610 -161.102774 46 34000ft 480kts
21-Feb-13 10:24 1.520215 -161.005456 47 34000ft 480kts
21-Feb-13 10:25 1.611262 -160.907624 46 34000ft 480kts
21-Feb-13 10:26 1.702715 -160.809396 46 34000ft 480kts
21-Feb-13 10:27 1.793019 -160.712402 46 34000ft 480kts
21-Feb-13 10:28 1.884261 -160.614365 46 34000ft 480kts
21-Feb-13 10:29 1.975407 -160.516443 46 34000ft 480kts
21-Feb-13 10:30 2.066386 -160.418659 46 34000ft 480kts
21-Feb-13 10:31 2.156926 -160.321333 46 34000ft 480kts
21-Feb-13 10:32 2.247882 -160.223555 46 34000ft 480kts
21-Feb-13 10:33 2.338693 -160.125887 47 34000ft 480kts
21-Feb-13 10:34 2.429571 -160.028162 47 34000ft 480kts
21-Feb-13 10:35 2.520776 -159.930010 47 34000ft 480kts
21-Feb-13 10:36 2.611252 -159.832602 46 34000ft 480kts
21-Feb-13 10:37 2.702157 -159.734771 47 34000ft 480kts
21-Feb-13 10:38 2.792283 -159.637730 47 34000ft 480kts
21-Feb-13 10:39 2.883145 -159.539913 47 34000ft 480kts
21-Feb-13 10:40 2.974503 -159.441510 47 34000ft 480kts
21-Feb-13 10:41 3.065575 -159.343391 46 34000ft 480kts
21-Feb-13 10:42 3.156099 -159.245854 47 34000ft 480kts
21-Feb-13 10:43 3.247099 -159.147739 47 34000ft 480kts
21-Feb-13 10:44 3.336978 -159.050853 47 34000ft 480kts
21-Feb-13 10:45 3.428600 -158.952020 47 34000ft 480kts
21-Feb-13 10:46 3.518635 -158.854839 47 34000ft 480kts
21-Feb-13 10:47 3.609631 -158.756626 47 34000ft 480kts
21-Feb-13 10:48 3.700646 -158.658343 47 34000ft 480kts
21-Feb-13 10:49 3.791327 -158.560445 47 34000ft 480kts
21-Feb-13 10:50 3.881622 -158.462893 47 34000ft 480kts
21-Feb-13 10:51 3.972310 -158.364889 47 34000ft 479kts
21-Feb-13 10:52 4.063314 -158.266531 47 34000ft 479kts
21-Feb-13 10:53 4.153221 -158.169276 47 34000ft 479kts
21-Feb-13 10:54 4.244160 -158.070929 47 34000ft 479kts
21-Feb-13 10:55 4.334930 -157.972680 47 34000ft 479kts
21-Feb-13 10:56 4.425279 -157.874858 47 34000ft 479kts
21-Feb-13 10:57 4.515727 -157.776896 47 34000ft 479kts
21-Feb-13 10:58 4.606033 -157.679011 47 34000ft 479kts
21-Feb-13 10:59 4.696783 -157.580674 47 34000ft 479kts
21-Feb-13 11:00 4.787262 -157.482559 47 34000ft 479kts
21-Feb-13 11:01 4.877941 -157.384169 47 34000ft 479kts
21-Feb-13 11:02 4.968442 -157.285955 47 34000ft 479kts
21-Feb-13 11:03 5.058961 -157.187842 47 34000ft 479kts
21-Feb-13 11:04 5.149429 -157.089701 47 34000ft 479kts
21-Feb-13 11:05 5.239610 -156.991830 47 34000ft 479kts
21-Feb-13 11:06 5.330138 -156.893610 47 34000ft 479kts
21-Feb-13 11:07 5.420883 -156.795028 47 34000ft 479kts
21-Feb-13 11:08 5.511380 -156.696735 47 34059ft 481kts
21-Feb-13 11:09 5.601214 -156.599052 47 35486ft 479kts
21-Feb-13 11:10 5.692344 -156.499914 47 35995ft 477kts
21-Feb-13 11:11 5.782529 -156.401858 47 35997ft 478kts
21-Feb-13 11:12 5.872378 -156.304007 47 35997ft 478kts
21-Feb-13 11:13 5.960044 -156.208568 47 35998ft 478kts
21-Feb-13 11:14 6.050304 -156.110188 47 35999ft 478kts
21-Feb-13 11:15 6.140766 -156.011513 47 36000ft 478kts
21-Feb-13 11:16 6.230810 -155.913340 47 36000ft 478kts
21-Feb-13 11:17 6.320546 -155.815350 47 36000ft 478kts
21-Feb-13 11:18 6.410736 -155.716892 47 36000ft 478kts
21-Feb-13 11:19 6.500708 -155.618558 47 36000ft 478kts
21-Feb-13 11:20 6.590401 -155.520446 47 36000ft 478kts
21-Feb-13 11:21 6.680522 -155.421943 47 36000ft 478kts
21-Feb-13 11:22 6.770788 -155.323093 47 36000ft 478kts
21-Feb-13 11:23 6.861280 -155.224024 47 36000ft 478kts
21-Feb-13 11:24 6.950573 -155.126144 47 36000ft 478kts
21-Feb-13 11:25 7.041076 -155.026849 47 36000ft 478kts
21-Feb-13 11:26 7.130747 -154.928521 47 36000ft 478kts
21-Feb-13 11:27 7.220574 -154.829846 47 36000ft 478kts
21-Feb-13 11:28 7.310021 -154.731615 47 36000ft 478kts
21-Feb-13 11:29 7.400211 -154.632441 47 36000ft 478kts
21-Feb-13 11:30 7.489909 -154.533714 47 36000ft 478kts
21-Feb-13 11:31 7.579485 -154.435222 47 36000ft 478kts
21-Feb-13 11:32 7.669736 -154.335765 47 36000ft 478kts
21-Feb-13 11:33 7.758582 -154.237874 47 36000ft 478kts
21-Feb-13 11:34 7.848761 -154.138381 47 36000ft 478kts
21-Feb-13 11:35 7.938405 -154.039393 47 36000ft 478kts
21-Feb-13 11:36 8.027985 -153.940429 47 36000ft 478kts
21-Feb-13 11:37 8.117610 -153.841430 47 36000ft 478kts
21-Feb-13 11:38 8.207175 -153.742275 47 36000ft 478kts
21-Feb-13 11:39 8.296204 -153.643530 47 36000ft 478kts
21-Feb-13 11:40 8.386364 -153.543521 47 36000ft 478kts
21-Feb-13 11:41 8.475151 -153.445018 47 36000ft 478kts
21-Feb-13 11:42 8.564542 -153.345698 47 36000ft 478kts
21-Feb-13 11:43 8.653903 -153.246439 47 36000ft 478kts
21-Feb-13 11:44 8.743453 -153.146765 47 36000ft 478kts
21-Feb-13 11:45 8.832821 -153.047258 47 36000ft 478kts
21-Feb-13 11:46 8.922088 -152.947819 47 36000ft 478kts
21-Feb-13 11:47 9.010883 -152.848729 47 36000ft 478kts
21-Feb-13 11:48 9.100534 -152.748751 47 36000ft 478kts
21-Feb-13 11:49 9.189312 -152.649543 47 36000ft 478kts
21-Feb-13 11:50 9.278709 -152.549596 47 36000ft 477kts
21-Feb-13 11:51 9.367894 -152.449897 47 36000ft 477kts
21-Feb-13 11:52 9.456936 -152.350135 47 36000ft 477kts
21-Feb-13 11:53 9.546065 -152.250387 47 36000ft 478kts
21-Feb-13 11:54 9.635301 -152.150270 47 36000ft 477kts
21-Feb-13 11:55 9.723981 -152.050703 47 36000ft 477kts
21-Feb-13 11:56 9.812877 -151.950876 47 36000ft 477kts
21-Feb-13 11:57 9.901553 -151.851088 47 36000ft 477kts
21-Feb-13 11:58 9.990650 -151.750893 47 36000ft 477kts
21-Feb-13 11:59 10.079573 -151.650680 47 36000ft 477kts
21-Feb-13 12:00 10.168210 -151.550712 47 36000ft 477kts
21-Feb-13 12:01 10.257499 -151.450050 47 36000ft 477kts
21-Feb-13 12:12 11.232771 -150.343339 48 36000ft 477kts
21-Feb-13 12:13 11.320483 -150.243295 48 36000ft 477kts
21-Feb-13 12:14 11.408833 -150.142324 48 36000ft 477kts
21-Feb-13 12:15 11.497041 -150.041453 48 36000ft 477kts
21-Feb-13 12:16 11.585679 -149.940044 48 36000ft 477kts
21-Feb-13 12:17 11.673381 -149.839346 48 36000ft 477kts
21-Feb-13 12:18 11.761457 -149.738089 48 36000ft 477kts
21-Feb-13 12:19 11.849522 -149.636970 48 36000ft 477kts
21-Feb-13 12:20 11.937723 -149.535373 48 36000ft 477kts
21-Feb-13 12:21 12.025846 -149.433969 48 36000ft 477kts
21-Feb-13 12:22 12.113421 -149.332947 48 36000ft 477kts
21-Feb-13 12:23 12.201585 -149.231048 48 36000ft 477kts
21-Feb-13 12:24 12.289437 -149.129638 48 36000ft 477kts
21-Feb-13 12:25 12.377568 -149.027570 48 36000ft 477kts
21-Feb-13 12:26 12.465327 -148.925979 48 36000ft 477kts
21-Feb-13 12:27 12.552467 -148.825011 48 36000ft 477kts
21-Feb-13 12:28 12.640706 -148.722488 48 36000ft 477kts
21-Feb-13 12:29 12.728309 -148.620807 48 36000ft 477kts
21-Feb-13 12:30 12.815607 -148.519135 48 36000ft 477kts
21-Feb-13 12:31 12.903250 -148.417158 48 36000ft 477kts
21-Feb-13 12:32 12.990401 -148.315508 48 36000ft 477kts
21-Feb-13 12:33 13.078194 -148.212885 48 36000ft 477kts
21-Feb-13 12:34 13.165403 -148.111075 48 36000ft 476kts
21-Feb-13 12:35 13.253249 -148.008167 48 36000ft 477kts
21-Feb-13 12:36 13.340620 -147.905843 48 36000ft 477kts
21-Feb-13 12:37 13.427292 -147.804150 48 36000ft 477kts
21-Feb-13 12:38 13.515107 -147.700959 48 36000ft 476kts
21-Feb-13 12:39 13.601793 -147.599247 48 36000ft 476kts
21-Feb-13 12:40 13.689430 -147.495978 48 36000ft 476kts
21-Feb-13 12:41 13.776873 -147.393006 48 36000ft 476kts
21-Feb-13 12:42 13.863653 -147.290573 48 36000ft 476kts
21-Feb-13 12:43 13.950336 -147.188019 48 36000ft 476kts
21-Feb-13 12:44 14.037576 -147.084926 48 36000ft 476kts
21-Feb-13 12:45 14.124180 -146.982231 48 36000ft 476kts
21-Feb-13 12:46 14.211071 -146.879196 48 36000ft 476kts
21-Feb-13 12:47 14.298243 -146.775659 48 36000ft 476kts
21-Feb-13 12:48 14.303108 -146.769872 48 36000ft 476kts
21-Feb-13 13:19 16.328990 -144.323405 49 35994ft 476kts
21-Feb-13 13:20 16.414791 -144.217966 49 36015ft 476kts
21-Feb-13 13:21 16.514981 -144.094896 49 37436ft 478kts
21-Feb-13 13:22 16.586848 -144.006335 49 37991ft 481kts
21-Feb-13 13:23 16.687442 -143.882287 49 37997ft 479kts
21-Feb-13 13:24 16.772668 -143.776787 49 37997ft 479kts
21-Feb-13 13:25 16.844532 -143.687661 49 37996ft 479kts
21-Feb-13 13:26 16.944626 -143.563678 49 37997ft 479kts
21-Feb-13 13:27 17.030018 -143.457475 49 37997ft 479kts
21-Feb-13 13:28 17.115810 -143.350901 49 37997ft 479kts
21-Feb-13 13:29 17.187401 -143.261608 49 37997ft 479kts
21-Feb-13 13:30 17.272802 -143.154865 49 37997ft 479kts
21-Feb-13 13:31 17.372576 -143.030310 49 37996ft 479kts
21-Feb-13 13:32 17.443752 -142.941053 49 37997ft 479kts
21-Feb-13 13:33 17.528995 -142.834446 49 37997ft 479kts
21-Feb-13 13:34 17.614369 -142.727268 49 37997ft 479kts
21-Feb-13 13:35 17.700059 -142.619305 49 37997ft 479kts
21-Feb-13 13:36 17.785029 -142.512439 50 37997ft 479kts
21-Feb-13 13:37 17.870267 -142.404760 50 37997ft 479kts
21-Feb-13 13:38 17.955529 -142.297093 50 37996ft 479kts
21-Feb-13 13:39 18.040754 -142.189101 50 37996ft 479kts
21-Feb-13 13:40 18.125128 -142.081898 50 37996ft 479kts
21-Feb-13 13:41 18.210296 -141.973894 50 37997ft 479kts
21-Feb-13 13:42 18.294813 -141.866167 50 37997ft 479kts
21-Feb-13 13:43 18.379304 -141.758570 50 37997ft 479kts
21-Feb-13 13:44 18.464226 -141.650055 50 37997ft 479kts
21-Feb-13 13:45 18.548799 -141.541913 50 37997ft 479kts
21-Feb-13 13:46 18.633563 -141.433641 50 37997ft 479kts
21-Feb-13 13:47 18.717950 -141.325173 50 37997ft 479kts
21-Feb-13 13:48 18.802659 -141.216364 50 37997ft 479kts
21-Feb-13 13:49 18.887310 -141.107254 50 37997ft 479kts
21-Feb-13 13:50 18.970902 -140.999201 50 37997ft 478kts
21-Feb-13 13:51 19.055687 -140.889820 50 37997ft 479kts
21-Feb-13 13:52 19.139389 -140.781266 50 37997ft 479kts
21-Feb-13 13:53 19.223813 -140.671863 50 37997ft 479kts
21-Feb-13 13:54 19.307628 -140.562875 50 37997ft 478kts
21-Feb-13 13:55 19.391680 -140.453300 50 37997ft 478kts
21-Feb-13 13:56 19.475967 -140.343598 50 37997ft 478kts
21-Feb-13 13:57 19.559479 -140.234578 50 37997ft 478kts
21-Feb-13 13:58 19.643600 -140.124619 50 37997ft 478kts
21-Feb-13 13:59 19.727007 -140.015170 50 37996ft 478kts
21-Feb-13 14:00 19.811064 -139.904563 50 37997ft 478kts
21-Feb-13 14:01 19.894691 -139.794687 50 37996ft 478kts
21-Feb-13 14:02 19.978099 -139.684566 50 37996ft 478kts
21-Feb-13 14:03 20.061289 -139.574784 50 37996ft 478kts
21-Feb-13 14:04 20.144560 -139.464553 50 37996ft 478kts
21-Feb-13 14:05 20.228137 -139.353823 50 37997ft 478kts
21-Feb-13 14:06 20.310979 -139.243573 51 37997ft 478kts
21-Feb-13 14:07 20.394326 -139.132351 51 37997ft 478kts
21-Feb-13 14:08 20.477008 -139.022124 50 37997ft 478kts
21-Feb-13 14:09 20.560367 -138.910987 51 37996ft 478kts
21-Feb-13 14:10 20.642909 -138.800272 51 37997ft 478kts
21-Feb-13 14:11 20.726094 -138.688905 51 37997ft 478kts
21-Feb-13 14:12 20.808501 -138.577919 51 37997ft 478kts
21-Feb-13 14:13 20.891184 -138.466632 51 37997ft 478kts
21-Feb-13 14:14 20.973999 -138.354853 51 37997ft 478kts
21-Feb-13 14:15 21.056427 -138.243130 51 37997ft 478kts
21-Feb-13 14:16 21.138729 -138.131852 51 37996ft 478kts
21-Feb-13 14:17 21.221148 -138.019743 51 37997ft 478kts
21-Feb-13 14:18 21.303610 -137.907614 51 37997ft 478kts
21-Feb-13 14:19 21.385619 -137.795786 51 37997ft 478kts
21-Feb-13 14:20 21.467685 -137.683425 51 37997ft 478kts
21-Feb-13 14:21 21.549700 -137.571713 51 37997ft 478kts
21-Feb-13 14:22 21.631906 -137.458876 51 37996ft 478kts
21-Feb-13 14:23 21.713578 -137.346704 51 37997ft 478kts
21-Feb-13 14:24 21.795574 -137.233759 52 37997ft 478kts
21-Feb-13 14:25 21.876907 -137.121247 52 37997ft 478kts
21-Feb-13 14:26 21.958755 -137.008302 52 37997ft 478kts
21-Feb-13 14:27 22.040441 -136.894884 52 37997ft 478kts
21-Feb-13 14:28 22.122004 -136.781646 52 37997ft 478kts
21-Feb-13 14:29 22.203332 -136.668453 52 37997ft 478kts
21-Feb-13 14:30 22.284036 -136.555629 52 37997ft 478kts
21-Feb-13 14:31 22.365883 -136.441505 52 37997ft 478kts
21-Feb-13 14:32 22.446469 -136.328426 52 37997ft 478kts
21-Feb-13 14:33 22.528186 -136.213952 52 37997ft 478kts
21-Feb-13 14:34 22.609248 -136.100140 52 37997ft 478kts
21-Feb-13 14:35 22.689487 -135.986763 52 37997ft 478kts
21-Feb-13 14:36 22.771022 -135.871822 52 37997ft 478kts
21-Feb-13 14:37 22.851592 -135.757528 52 37997ft 478kts
21-Feb-13 14:38 22.931976 -135.643464 52 37997ft 478kts
21-Feb-13 14:39 23.013102 -135.528112 52 37997ft 478kts
21-Feb-13 14:40 23.093191 -135.413697 52 37997ft 478kts
21-Feb-13 14:41 23.173742 -135.298888 52 37997ft 478kts
21-Feb-13 14:42 23.253732 -135.184152 52 37997ft 478kts
21-Feb-13 14:43 23.334024 -135.068927 52 37997ft 478kts
21-Feb-13 14:44 23.414345 -134.953452 52 37997ft 478kts
21-Feb-13 14:45 23.493997 -134.838357 52 37997ft 478kts
21-Feb-13 14:46 23.574311 -134.722977 52 37997ft 477kts
21-Feb-13 14:47 23.653824 -134.607673 53 37997ft 477kts
21-Feb-13 14:48 23.733757 -134.491631 52 37998ft 477kts
21-Feb-13 14:49 23.813763 -134.375322 53 37998ft 477kts
21-Feb-13 14:50 23.892971 -134.259547 53 37999ft 477kts
21-Feb-13 14:51 23.972779 -134.143166 53 38000ft 477kts
21-Feb-13 14:52 24.052167 -134.026665 53 38000ft 477kts
21-Feb-13 14:53 24.131491 -133.910145 53 38000ft 477kts
21-Feb-13 14:54 24.204594 -133.802663 53 38000ft 477kts
21-Feb-13 14:55 24.289485 -133.677145 53 38000ft 477kts
21-Feb-13 14:56 24.368419 -133.560675 53 38000ft 477kts
21-Feb-13 14:57 24.447768 -133.442855 53 38000ft 477kts
21-Feb-13 14:58 24.518474 -133.337824 53 38000ft 477kts
21-Feb-13 14:59 24.605319 -133.208918 53 38000ft 477kts
21-Feb-13 15:00 24.683637 -133.091730 53 38000ft 477kts
21-Feb-13 15:01 24.762584 -132.973819 53 38000ft 477kts
21-Feb-13 15:02 24.841273 -132.855579 53 38000ft 477kts
21-Feb-13 15:03 24.919655 -132.737637 53 38000ft 477kts
21-Feb-13 15:04 24.997989 -132.619646 53 38000ft 477kts
21-Feb-13 15:05 25.076078 -132.501422 53 38000ft 477kts
21-Feb-13 15:06 25.154040 -132.383521 53 38000ft 477kts
21-Feb-13 15:07 25.232010 -132.265037 53 38000ft 477kts
21-Feb-13 15:08 25.310294 -132.145966 53 38000ft 477kts
21-Feb-13 15:09 25.388260 -132.026712 54 38000ft 477kts
21-Feb-13 15:10 25.465288 -131.908545 54 38000ft 477kts
21-Feb-13 15:11 25.543232 -131.789609 53 38000ft 477kts
21-Feb-13 15:12 25.620757 -131.670454 54 38000ft 477kts
21-Feb-13 15:13 25.698346 -131.550567 54 38000ft 477kts
21-Feb-13 15:14 25.775579 -131.431583 54 38000ft 477kts
21-Feb-13 15:15 25.852876 -131.311541 54 38000ft 477kts
21-Feb-13 15:16 25.930163 -131.191718 54 38000ft 477kts
21-Feb-13 15:17 26.007112 -131.071796 54 38000ft 477kts
21-Feb-13 15:18 26.083880 -130.951605 54 38000ft 477kts
21-Feb-13 15:19 26.160707 -130.831760 54 38000ft 477kts
21-Feb-13 15:20 26.237521 -130.710920 54 38000ft 477kts
21-Feb-13 15:21 26.314251 -130.590386 54 38000ft 477kts
21-Feb-13 15:22 26.389431 -130.471668 54 38000ft 477kts
21-Feb-13 15:23 26.464202 -130.353030 54 38000ft 477kts
21-Feb-13 15:24 26.543361 -130.228267 54 38000ft 477kts
21-Feb-13 15:25 26.569295 -130.187073 54 38000ft 477kts
21-Feb-13 15:29 26.853323 -129.732858 54 38008ft 478kts
21-Feb-13 15:30 26.921760 -129.623324 54 38004ft 477kts
21-Feb-13 15:31 27.005071 -129.488688 55 38004ft 477kts
21-Feb-13 15:32 27.080495 -129.366904 55 38004ft 477kts
21-Feb-13 15:33 27.156114 -129.244217 55 38004ft 477kts
21-Feb-13 15:34 27.230883 -129.122304 55 38004ft 477kts
21-Feb-13 15:35 27.306831 -128.998950 55 38003ft 477kts
21-Feb-13 15:36 27.381589 -128.876439 55 38980ft 478kts
21-Feb-13 15:37 27.457637 -128.751962 55 39966ft 483kts
21-Feb-13 15:38 27.506592 -128.671617 55 39993ft 479kts
21-Feb-13 15:47 28.205829 -127.506385 55 39997ft 480kts
21-Feb-13 15:48 28.279976 -127.380738 56 39997ft 480kts
21-Feb-13 15:49 28.354105 -127.254542 56 39997ft 480kts
21-Feb-13 15:50 28.428272 -127.128807 56 39997ft 480kts
21-Feb-13 15:51 28.501583 -127.003349 56 39997ft 480kts
21-Feb-13 15:52 28.575773 -126.877060 56 39997ft 480kts
21-Feb-13 15:53 28.649395 -126.750606 56 39997ft 480kts
21-Feb-13 15:54 28.723278 -126.622957 56 39997ft 480kts
21-Feb-13 15:55 28.797196 -126.495759 56 39997ft 480kts
21-Feb-13 15:56 28.869841 -126.369408 56 39997ft 480kts
21-Feb-13 15:57 28.940828 -126.246246 56 39997ft 480kts
21-Feb-13 15:58 29.014094 -126.118483 56 39997ft 480kts
21-Feb-13 15:59 29.086923 -125.990736 56 39997ft 480kts
21-Feb-13 16:00 29.159665 -125.863665 56 39997ft 480kts
21-Feb-13 16:01 29.232315 -125.735528 56 39997ft 480kts
21-Feb-13 16:02 29.305680 -125.606278 56 39997ft 480kts
21-Feb-13 16:03 29.378084 -125.477970 56 39997ft 480kts
21-Feb-13 16:04 29.450254 -125.349320 56 39997ft 480kts
21-Feb-13 16:05 29.522719 -125.220980 56 39997ft 480kts
21-Feb-13 16:06 29.594793 -125.092110 57 39997ft 480kts
21-Feb-13 16:07 29.666849 -124.963183 56 39997ft 480kts
21-Feb-13 16:08 29.738696 -124.833929 57 39997ft 479kts
21-Feb-13 16:09 29.810484 -124.704020 57 39996ft 479kts
21-Feb-13 16:10 29.882236 -124.574680 57 39997ft 479kts
21-Feb-13 16:11 29.953261 -124.445265 57 39997ft 479kts
21-Feb-13 16:12 30.024904 -124.314945 57 39996ft 479kts
21-Feb-13 16:13 30.096264 -124.186184 58 39997ft 479kts
21-Feb-13 16:14 30.130131 -124.122767 58 40101ft 478kts
21-Feb-13 16:15 30.200915 -123.992571 57 40112ft 478kts
21-Feb-13 16:16 30.272323 -123.860959 57 40114ft 478kts
21-Feb-13 16:17 30.342495 -123.730945 58 40114ft 478kts
21-Feb-13 16:18 30.412883 -123.600918 58 40114ft 478kts
21-Feb-13 16:19 30.483365 -123.469490 58 40114ft 478kts
21-Feb-13 16:20 30.553253 -123.339122 58 40114ft 478kts
21-Feb-13 16:21 30.623820 -123.207096 58 40113ft 478kts
21-Feb-13 16:22 30.693678 -123.075741 58 40113ft 478kts
21-Feb-13 16:23 30.762691 -122.943493 58 40113ft 478kts
21-Feb-13 16:24 30.831217 -122.811673 58 40111ft 478kts
21-Feb-13 16:25 30.900404 -122.679115 58 40112ft 478kts
21-Feb-13 16:26 30.968804 -122.546797 58 40096ft 478kts
21-Feb-13 16:27 31.037364 -122.413880 58 40089ft 478kts
21-Feb-13 16:28 31.105796 -122.280978 59 40086ft 478kts
21-Feb-13 16:29 31.174164 -122.147275 58 40084ft 478kts
21-Feb-13 16:30 31.241252 -122.016592 59 40084ft 462kts
21-Feb-13 16:31 31.307473 -121.886384 62 40082ft 474kts
21-Feb-13 16:32 31.376257 -121.750864 61 40079ft 499kts
21-Feb-13 16:33 31.448720 -121.607459 55 40085ft 523kts
21-Feb-13 16:34 31.519973 -121.466412 51 40080ft 474kts
21-Feb-13 16:35 31.580103 -121.325773 59 40086ft 494kts
21-Feb-13 16:36 31.631860 -121.177157 60 40087ft 494kts
21-Feb-13 16:37 31.683160 -121.027978 60 40088ft 492kts
21-Feb-13 16:38 31.734565 -120.879229 60 40086ft 492kts
21-Feb-13 16:39 31.785370 -120.730176 60 38939ft 487kts
21-Feb-13 16:40 31.834087 -120.587658 59 37718ft 471kts
21-Feb-13 16:41 31.882721 -120.443937 59 36500ft 473kts
21-Feb-13 16:42 31.931628 -120.300009 56 35275ft 471kts
21-Feb-13 16:43 32.009515 -120.183455 38 34073ft 448kts
21-Feb-13 16:44 32.092354 -120.078594 39 32865ft 439kts
21-Feb-13 16:45 32.175336 -119.973326 39 31655ft 444kts
21-Feb-13 16:46 32.245553 -119.884553 39 30638ft 443kts
21-Feb-13 16:47 32.342507 -119.761010 39 29214ft 436kts
21-Feb-13 16:48 32.424518 -119.656318 39 27990ft 429kts
21-Feb-13 16:49 32.504600 -119.553942 39 26775ft 423kts
21-Feb-13 16:50 32.571325 -119.468243 39 25748ft 418kts
21-Feb-13 16:51 32.661696 -119.351500 39 24332ft 411kts
21-Feb-13 16:52 32.737409 -119.253193 47 22986ft 395kts
21-Feb-13 16:53 32.801053 -119.171194 40 22089ft 395kts
21-Feb-13 16:54 32.883536 -119.064289 41 20656ft 370kts
21-Feb-13 16:55 32.941471 -118.988886 40 19637ft 369kts
21-Feb-13 16:56 33.021931 -118.884172 40 18217ft 366kts
21-Feb-13 16:57 33.078626 -118.809962 41 17198ft 360kts
21-Feb-13 16:58 33.146055 -118.721614 41 15961ft 356kts
21-Feb-13 16:59 33.191055 -118.616743 68 14473ft 370kts
21-Feb-13 17:00 33.211335 -118.496282 73 13243ft 362kts
21-Feb-13 17:01 33.228987 -118.378601 74 12064ft 358kts
21-Feb-13 17:02 33.246470 -118.262097 74 12007ft 356kts
21-Feb-13 17:03 33.264173 -118.145872 74 12003ft 357kts
21-Feb-13 17:04 33.282664 -118.029300 64 11979ft 348kts
21-Feb-13 17:05 33.358169 -117.982674 355 12006ft 325kts
21-Feb-13 17:06 33.440786 -117.995381 351 10851ft 300kts
21-Feb-13 17:07 33.517639 -118.008440 351 10049ft 255kts
21-Feb-13 17:08 33.586443 -118.020115 351 8645ft 246kts
21-Feb-13 17:09 33.654449 -118.031904 351 7432ft 242kts
21-Feb-13 17:10 33.719935 -118.043319 351 6986ft 241kts
21-Feb-13 17:11 33.785237 -118.060639 325 6960ft 242kts
21-Feb-13 17:12 33.779456 -118.128707 211 5769ft 244kts
21-Feb-13 17:13 33.730108 -118.092264 91 4981ft 242kts
21-Feb-13 17:14 33.775415 -118.058582 344 5030ft 228kts
21-Feb-13 17:15 33.834005 -118.080998 342 4949ft 188kts
21-Feb-13 17:16 33.874240 -118.096753 342 4981ft 145kts
21-Feb-13 17:17 33.912837 -118.111897 342 4903ft 142kts
21-Feb-13 17:18 33.952225 -118.126559 337 3777ft 160kts
21-Feb-13 17:19 33.958749 -118.175438 268 3482ft 160kts
21-Feb-13 17:20 33.953616 -118.226210 267 2640ft 145kts
21-Feb-13 17:21 33.948700 -118.274437 266 1866ft 136kts
21-Feb-13 17:22 33.944043 -118.320012 264 1158ft 135kts
21-Feb-13 17:23 33.939427 -118.365093 261 436ft 139kts
21-Feb-13 17:24 33.936087 -118.397568 265 138ft 36kts
21-Feb-13 17:25 33.936720 -118.399923 308 138ft 0kts
21-Feb-13 17:26 33.936911 -118.400204 309 138ft 6kts
21-Feb-13 17:27 33.938030 -118.401658 318 138ft 3kts
21-Feb-13 17:28 33.938242 -118.401877 319 138ft 0kts
21-Feb-13 17:29 33.938805 -118.400223 82 138ft 9kts
21-Feb-13 17:30 33.939092 -118.397247 82 138ft 12kts
21-Feb-13 17:31 33.939389 -118.394328 84 138ft 10kts
21-Feb-13 17:32 33.939700 -118.392233 14 138ft 3kts
21-Feb-13 17:33 33.942878 -118.392456 352 138ft 3kts
21-Feb-13 17:34 33.943575 -118.392519 357 138ft 0kts
21-Feb-13 17:35 33.943575 -118.392519 357 138ft 0kts

Navigation Log

Ident Type
Flight plan parsing failed, navigation log unavailable